Time,TemperatureF,DewpointF,PressureIn,WindDirection,WindDirectionDegrees,WindSpeedMPH,WindSpeedGustMPH,Humidity,HourlyPrecipIn,Conditions,Clouds,dailyrainin,SoftwareType,DateUTC
2013-06-05 00:02:00,53.4,46.8,30.05,West,270,0.0,0.0,78,0.00,,,0.00,meteohub,2013-06-05 07:02:00,
2013-06-05 00:07:00,53.2,46.6,30.05,SE,135,0.0,0.0,78,0.00,,,0.00,meteohub,2013-06-05 07:07:00,
2013-06-05 00:12:00,53.1,46.4,30.04,SW,225,0.0,0.0,78,0.00,,,0.00,meteohub,2013-06-05 07:12:00,
2013-06-05 00:17:00,52.9,46.2,30.04,NE,45,0.0,0.0,78,0.00,,,0.00,meteohub,2013-06-05 07:17:00,
2013-06-05 00:22:00,52.7,46.0,30.04,East,90,0.0,0.0,78,0.00,,,0.00,meteohub,2013-06-05 07:22:00,
2013-06-05 00:27:00,52.5,45.9,30.05,SE,135,0.0,0.0,78,0.00,,,0.00,meteohub,2013-06-05 07:27:00,
2013-06-05 00:32:00,52.3,46.0,30.05,ENE,68,0.0,0.0,79,0.00,,,0.00,meteohub,2013-06-05 07:32:00,
2013-06-05 00:37:00,52.2,45.9,30.05,SE,135,0.0,0.0,79,0.00,,,0.00,meteohub,2013-06-05 07:37:00,
2013-06-05 00:42:00,52.0,45.7,30.05,SSE,158,0.0,0.0,79,0.00,,,0.00,meteohub,2013-06-05 07:42:00,
2013-06-05 00:47:00,51.8,45.5,30.05,East,90,0.0,0.0,79,0.00,,,0.00,meteohub,2013-06-05 07:47:00,
2013-06-05 00:52:00,51.6,45.3,30.05,SSE,158,0.0,0.0,79,0.00,,,0.00,meteohub,2013-06-05 07:52:00,
2013-06-05 00:57:00,51.4,45.1,30.05,South,180,0.0,0.0,79,0.00,,,0.00,meteohub,2013-06-05 07:57:00,
2013-06-05 01:02:00,51.4,45.1,30.05,ESE,113,0.0,0.0,79,0.00,,,0.00,meteohub,2013-06-05 08:02:00,
2013-06-05 01:07:00,51.4,45.1,30.05,SE,135,0.0,0.0,79,0.00,,,0.00,meteohub,2013-06-05 08:07:00,
2013-06-05 01:12:00,51.4,45.1,30.05,SSE,158,0.0,0.0,79,0.00,,,0.00,meteohub,2013-06-05 08:12:00,
2013-06-05 01:17:00,51.3,45.0,30.05,SE,135,0.0,0.0,79,0.00,,,0.00,meteohub,2013-06-05 08:17:00,
2013-06-05 01:22:00,51.3,45.0,30.05,SSE,158,0.0,0.0,79,0.00,,,0.00,meteohub,2013-06-05 08:22:00,
2013-06-05 01:27:00,51.3,45.0,30.03,SSE,158,0.0,0.0,79,0.00,,,0.00,meteohub,2013-06-05 08:27:00,
2013-06-05 01:32:00,50.9,45.0,30.03,ENE,68,0.0,0.0,80,0.00,,,0.00,meteohub,2013-06-05 08:32:00,
2013-06-05 01:37:00,50.9,45.0,30.03,ENE,68,0.0,0.0,80,0.00,,,0.00,meteohub,2013-06-05 08:37:00,
2013-06-05 01:42:00,50.9,45.0,30.03,ESE,113,0.0,0.0,80,0.00,,,0.00,meteohub,2013-06-05 08:42:00,
2013-06-05 01:47:00,50.7,44.8,30.04,SE,135,0.0,0.0,80,0.00,,,0.00,meteohub,2013-06-05 08:47:00,
2013-06-05 01:52:00,50.5,44.6,30.04,SSE,158,0.0,0.0,80,0.00,,,0.00,meteohub,2013-06-05 08:52:00,
2013-06-05 01:57:00,50.4,44.4,30.04,ESE,113,0.0,0.0,80,0.00,,,0.00,meteohub,2013-06-05 08:57:00,
2013-06-05 02:02:00,50.4,44.4,30.04,South,180,0.0,0.0,80,0.00,,,0.00,meteohub,2013-06-05 09:02:00,
2013-06-05 02:07:00,50.2,44.2,30.03,ESE,113,0.0,0.0,80,0.00,,,0.00,meteohub,2013-06-05 09:07:00,
2013-06-05 02:12:00,50.0,44.1,30.03,ESE,113,0.0,0.0,80,0.00,,,0.00,meteohub,2013-06-05 09:12:00,
2013-06-05 02:17:00,50.0,44.1,30.03,ESE,113,0.0,0.0,80,0.00,,,0.00,meteohub,2013-06-05 09:17:00,
2013-06-05 02:22:00,50.0,44.1,30.03,East,90,0.0,0.0,80,0.00,,,0.00,meteohub,2013-06-05 09:22:00,
2013-06-05 02:27:00,50.0,44.1,30.03,SE,135,0.0,0.0,80,0.00,,,0.00,meteohub,2013-06-05 09:27:00,
2013-06-05 02:32:00,49.8,43.9,30.03,East,90,0.0,0.0,80,0.00,,,0.00,meteohub,2013-06-05 09:32:00,
2013-06-05 02:37:00,49.6,43.7,30.03,ESE,113,0.0,0.0,80,0.00,,,0.00,meteohub,2013-06-05 09:37:00,
2013-06-05 02:42:00,49.6,43.7,30.03,ESE,113,0.0,0.0,80,0.00,,,0.00,meteohub,2013-06-05 09:42:00,
2013-06-05 02:47:00,49.5,43.5,30.02,ENE,68,0.0,0.0,80,0.00,,,0.00,meteohub,2013-06-05 09:47:00,
2013-06-05 02:52:00,49.5,43.9,30.02,ENE,68,0.0,0.0,81,0.00,,,0.00,meteohub,2013-06-05 09:52:00,
2013-06-05 02:57:00,49.3,43.7,30.02,East,90,0.0,0.0,81,0.00,,,0.00,meteohub,2013-06-05 09:57:00,
2013-06-05 03:02:00,49.3,43.7,30.02,SE,135,0.0,0.0,81,0.00,,,0.00,meteohub,2013-06-05 10:02:00,
2013-06-05 03:07:00,49.3,43.7,30.02,ESE,113,0.0,0.0,81,0.00,,,0.00,meteohub,2013-06-05 10:07:00,
2013-06-05 03:12:00,49.3,43.7,30.02,East,90,0.0,0.0,81,0.00,,,0.00,meteohub,2013-06-05 10:12:00,
2013-06-05 03:17:00,49.3,44.1,30.02,East,90,0.0,0.0,82,0.00,,,0.00,meteohub,2013-06-05 10:17:00,
2013-06-05 03:22:00,49.3,44.1,30.02,East,90,0.0,0.0,82,0.00,,,0.00,meteohub,2013-06-05 10:22:00,
2013-06-05 03:27:00,49.3,44.1,30.02,ESE,113,0.0,0.0,82,0.00,,,0.00,meteohub,2013-06-05 10:27:00,
2013-06-05 03:32:00,49.3,44.1,30.02,ESE,113,0.0,0.0,82,0.00,,,0.00,meteohub,2013-06-05 10:32:00,
2013-06-05 03:37:00,49.3,44.1,30.02,ESE,113,0.0,0.0,82,0.00,,,0.00,meteohub,2013-06-05 10:37:00,
2013-06-05 03:42:00,49.3,44.4,30.02,NE,45,0.0,0.0,83,0.00,,,0.00,meteohub,2013-06-05 10:42:00,
2013-06-05 03:47:00,49.3,44.4,30.02,SE,135,0.0,0.0,83,0.00,,,0.00,meteohub,2013-06-05 10:47:00,
2013-06-05 03:52:00,49.5,44.6,30.01,SW,225,0.0,0.0,83,0.00,,,0.00,meteohub,2013-06-05 10:52:00,
2013-06-05 03:57:00,49.6,44.8,30.01,SW,225,0.0,0.0,83,0.00,,,0.00,meteohub,2013-06-05 10:57:00,
2013-06-05 04:02:00,49.6,44.8,30.01,South,180,0.0,0.0,83,0.00,,,0.00,meteohub,2013-06-05 11:02:00,
2013-06-05 04:07:00,49.8,44.8,30.01,East,90,0.0,0.0,83,0.00,,,0.00,meteohub,2013-06-05 11:07:00,
2013-06-05 04:12:00,49.8,44.8,30.01,SE,135,0.0,0.0,83,0.00,,,0.00,meteohub,2013-06-05 11:12:00,
2013-06-05 04:17:00,49.8,45.1,30.01,ENE,68,0.0,0.0,84,0.00,,,0.00,meteohub,2013-06-05 11:17:00,
2013-06-05 04:22:00,49.8,45.1,30.01,ESE,113,0.0,0.0,84,0.00,,,0.00,meteohub,2013-06-05 11:22:00,
2013-06-05 04:27:00,49.8,45.1,30.02,ESE,113,0.0,0.0,84,0.00,,,0.00,meteohub,2013-06-05 11:27:00,
2013-06-05 04:32:00,50.2,45.5,30.02,SE,135,0.0,0.0,84,0.00,,,0.00,meteohub,2013-06-05 11:32:00,
2013-06-05 04:37:00,50.4,45.7,30.02,SW,225,0.0,0.0,84,0.00,,,0.00,meteohub,2013-06-05 11:37:00,
2013-06-05 04:42:00,50.4,45.7,30.02,SSE,158,0.0,0.0,84,0.00,,,0.00,meteohub,2013-06-05 11:42:00,
2013-06-05 04:47:00,50.5,45.9,30.01,ESE,113,0.0,0.0,84,0.00,,,0.00,meteohub,2013-06-05 11:47:00,
2013-06-05 04:52:00,50.5,45.9,30.01,SSW,203,0.0,0.0,84,0.00,,,0.00,meteohub,2013-06-05 11:52:00,
2013-06-05 04:57:00,50.7,46.0,30.01,South,180,0.0,0.0,84,0.00,,,0.00,meteohub,2013-06-05 11:57:00,
2013-06-05 05:02:00,50.9,46.2,30.01,East,90,0.0,0.0,84,0.00,,,0.00,meteohub,2013-06-05 12:02:00,
2013-06-05 05:07:00,51.1,46.4,30.02,NW,315,0.0,0.0,84,0.00,,,0.00,meteohub,2013-06-05 12:07:00,
2013-06-05 05:12:00,51.1,46.4,30.02,South,180,0.0,0.0,84,0.00,,,0.00,meteohub,2013-06-05 12:12:00,
2013-06-05 05:17:00,51.3,46.6,30.02,South,180,0.0,0.0,84,0.00,,,0.00,meteohub,2013-06-05 12:17:00,
2013-06-05 05:22:00,51.3,46.6,30.02,SW,225,0.0,0.0,84,0.00,,,0.00,meteohub,2013-06-05 12:22:00,
2013-06-05 05:27:00,51.4,46.8,30.02,SE,135,0.0,0.0,84,0.00,,,0.00,meteohub,2013-06-05 12:27:00,
2013-06-05 05:32:00,51.6,46.9,30.02,WSW,248,0.0,0.0,84,0.00,,,0.00,meteohub,2013-06-05 12:32:00,
2013-06-05 05:37:00,51.6,46.9,30.02,SSW,203,0.0,0.0,84,0.00,,,0.00,meteohub,2013-06-05 12:37:00,
2013-06-05 05:42:00,51.8,47.1,30.02,WNW,293,0.0,0.0,84,0.00,,,0.00,meteohub,2013-06-05 12:42:00,
2013-06-05 05:47:00,51.8,47.1,30.02,NW,315,0.0,0.0,84,0.00,,,0.00,meteohub,2013-06-05 12:47:00,
2013-06-05 05:52:00,52.0,47.3,30.02,NE,45,0.0,0.0,84,0.00,,,0.00,meteohub,2013-06-05 12:52:00,
2013-06-05 05:57:00,52.2,47.5,30.02,South,180,0.0,0.0,84,0.00,,,0.00,meteohub,2013-06-05 12:57:00,
2013-06-05 06:02:00,52.3,47.7,30.02,ENE,68,2.0,0.0,84,0.00,,,0.00,meteohub,2013-06-05 13:02:00,
2013-06-05 06:07:00,52.3,47.7,30.03,South,180,0.0,0.0,84,0.00,,,0.00,meteohub,2013-06-05 13:07:00,
2013-06-05 06:12:00,52.5,47.8,30.03,SE,135,0.0,2.0,84,0.00,,,0.00,meteohub,2013-06-05 13:12:00,
2013-06-05 06:17:00,52.7,48.4,30.03,West,270,0.0,2.0,85,0.00,,,0.00,meteohub,2013-06-05 13:17:00,
2013-06-05 06:22:00,52.7,48.4,30.03,North,0,0.0,0.0,85,0.00,,,0.00,meteohub,2013-06-05 13:22:00,
2013-06-05 06:27:00,52.7,48.4,30.03,SE,135,0.0,0.0,85,0.00,,,0.00,meteohub,2013-06-05 13:27:00,
2013-06-05 06:32:00,52.7,48.4,30.03,East,90,0.0,2.0,85,0.00,,,0.00,meteohub,2013-06-05 13:32:00,
2013-06-05 06:37:00,52.9,48.6,30.03,South,180,0.0,2.0,85,0.00,,,0.00,meteohub,2013-06-05 13:37:00,
2013-06-05 06:42:00,53.1,48.7,30.03,ESE,113,0.0,0.0,85,0.00,,,0.00,meteohub,2013-06-05 13:42:00,
2013-06-05 06:47:00,53.1,48.7,30.02,ENE,68,0.0,0.0,85,0.00,,,0.00,meteohub,2013-06-05 13:47:00,
2013-06-05 06:52:00,53.1,48.7,30.02,SE,135,0.0,0.0,85,0.00,,,0.00,meteohub,2013-06-05 13:52:00,
2013-06-05 06:57:00,53.2,48.9,30.02,SE,135,0.0,0.0,85,0.00,,,0.00,meteohub,2013-06-05 13:57:00,
2013-06-05 07:02:00,53.2,48.9,30.02,South,180,0.0,0.0,85,0.00,,,0.00,meteohub,2013-06-05 14:02:00,
2013-06-05 07:07:00,53.4,49.1,30.03,ESE,113,0.0,0.0,85,0.00,,,0.00,meteohub,2013-06-05 14:07:00,
2013-06-05 07:12:00,53.4,49.1,30.03,ESE,113,2.0,0.0,85,0.00,,,0.00,meteohub,2013-06-05 14:12:00,
2013-06-05 07:17:00,53.6,48.9,30.03,SE,135,1.0,2.0,84,0.00,,,0.00,meteohub,2013-06-05 14:17:00,
2013-06-05 07:22:00,53.6,48.9,30.03,SE,135,0.0,2.0,84,0.00,,,0.00,meteohub,2013-06-05 14:22:00,
2013-06-05 07:27:00,53.6,48.9,30.04,SE,135,0.0,2.0,84,0.00,,,0.00,meteohub,2013-06-05 14:27:00,
2013-06-05 07:32:00,53.8,49.1,30.04,NNW,338,2.0,2.0,84,0.00,,,0.00,meteohub,2013-06-05 14:32:00,
2013-06-05 07:37:00,54.0,49.3,30.04,SW,225,2.0,2.0,84,0.00,,,0.00,meteohub,2013-06-05 14:37:00,
2013-06-05 07:42:00,54.0,49.3,30.04,SW,225,0.0,2.0,84,0.00,,,0.00,meteohub,2013-06-05 14:42:00,
2013-06-05 07:47:00,54.1,49.5,30.04,East,90,0.0,2.0,84,0.00,,,0.00,meteohub,2013-06-05 14:47:00,
2013-06-05 07:52:00,54.1,49.1,30.04,ESE,113,0.0,2.0,83,0.00,,,0.00,meteohub,2013-06-05 14:52:00,
2013-06-05 07:57:00,54.5,49.5,30.04,ESE,113,2.0,2.0,83,0.00,,,0.00,meteohub,2013-06-05 14:57:00,
2013-06-05 08:02:00,54.5,49.5,30.04,SE,135,0.0,2.0,83,0.00,,,0.00,meteohub,2013-06-05 15:02:00,
2013-06-05 08:07:00,54.7,49.6,30.05,South,180,2.0,2.0,83,0.00,,,0.00,meteohub,2013-06-05 15:07:00,
2013-06-05 08:12:00,54.7,49.6,30.05,West,270,2.0,2.0,83,0.00,,,0.00,meteohub,2013-06-05 15:12:00,
2013-06-05 08:17:00,55.0,50.0,30.05,WNW,293,1.0,2.0,83,0.00,,,0.00,meteohub,2013-06-05 15:17:00,
2013-06-05 08:22:00,55.0,50.0,30.05,SE,135,0.0,2.0,83,0.00,,,0.00,meteohub,2013-06-05 15:22:00,
2013-06-05 08:27:00,55.2,50.2,30.05,SE,135,1.0,2.0,83,0.00,,,0.00,meteohub,2013-06-05 15:27:00,
2013-06-05 08:32:00,55.4,50.0,30.05,SSW,203,0.0,2.0,82,0.00,,,0.00,meteohub,2013-06-05 15:32:00,
2013-06-05 08:37:00,55.6,49.8,30.05,SSW,203,0.0,2.0,81,0.00,,,0.00,meteohub,2013-06-05 15:37:00,
2013-06-05 08:42:00,55.6,49.8,30.05,WSW,248,2.0,2.0,81,0.00,,,0.00,meteohub,2013-06-05 15:42:00,
2013-06-05 08:47:00,55.8,50.0,30.06,ENE,68,2.0,2.0,81,0.00,,,0.00,meteohub,2013-06-05 15:47:00,
2013-06-05 08:52:00,55.8,50.0,30.06,ESE,113,1.0,2.0,81,0.00,,,0.00,meteohub,2013-06-05 15:52:00,
2013-06-05 08:57:00,55.9,49.8,30.06,NE,45,0.0,3.0,80,0.00,,,0.00,meteohub,2013-06-05 15:57:00,
2013-06-05 09:02:00,55.9,49.8,30.06,SSE,158,2.0,3.0,80,0.00,,,0.00,meteohub,2013-06-05 16:02:00,
2013-06-05 09:07:00,56.1,50.0,30.06,NNE,23,0.0,2.0,80,0.00,,,0.00,meteohub,2013-06-05 16:07:00,
2013-06-05 09:12:00,56.1,50.0,30.06,South,180,3.0,3.0,80,0.00,,,0.00,meteohub,2013-06-05 16:12:00,
2013-06-05 09:17:00,56.3,50.2,30.06,NW,315,2.0,3.0,80,0.00,,,0.00,meteohub,2013-06-05 16:17:00,
2013-06-05 09:22:00,56.5,50.4,30.06,ENE,68,2.0,3.0,80,0.00,,,0.00,meteohub,2013-06-05 16:22:00,
2013-06-05 09:27:00,56.5,50.0,30.06,NE,45,0.0,3.0,79,0.00,,,0.00,meteohub,2013-06-05 16:27:00,
2013-06-05 09:32:00,56.8,50.4,30.06,ENE,68,4.0,4.0,79,0.00,,,0.00,meteohub,2013-06-05 16:32:00,
2013-06-05 09:37:00,56.8,50.4,30.06,WSW,248,0.0,4.0,79,0.00,,,0.00,meteohub,2013-06-05 16:37:00,
2013-06-05 09:42:00,57.0,50.5,30.06,SE,135,0.0,4.0,79,0.00,,,0.00,meteohub,2013-06-05 16:42:00,
2013-06-05 09:47:00,57.4,50.9,30.06,East,90,0.0,4.0,79,0.00,,,0.00,meteohub,2013-06-05 16:47:00,
2013-06-05 09:52:00,57.7,50.9,30.06,SSE,158,6.0,6.0,78,0.00,,,0.00,meteohub,2013-06-05 16:52:00,
2013-06-05 09:57:00,57.9,51.1,30.06,South,180,3.0,6.0,78,0.00,,,0.00,meteohub,2013-06-05 16:57:00,
2013-06-05 10:02:00,57.9,51.1,30.06,SE,135,0.0,6.0,78,0.00,,,0.00,meteohub,2013-06-05 17:02:00,
2013-06-05 10:07:00,58.1,51.3,30.07,SSE,158,2.0,6.0,78,0.00,,,0.00,meteohub,2013-06-05 17:07:00,
2013-06-05 10:12:00,58.3,51.1,30.07,SE,135,0.0,3.0,77,0.00,,,0.00,meteohub,2013-06-05 17:12:00,
2013-06-05 10:17:00,58.5,51.3,30.07,NNW,338,3.0,3.0,77,0.00,,,0.00,meteohub,2013-06-05 17:17:00,
2013-06-05 10:22:00,58.6,51.4,30.07,ENE,68,3.0,3.0,77,0.00,,,0.00,meteohub,2013-06-05 17:22:00,
2013-06-05 10:27:00,59.0,51.4,30.06,NW,315,4.0,4.0,76,0.00,,,0.00,meteohub,2013-06-05 17:27:00,
2013-06-05 10:32:00,59.2,51.6,30.06,South,180,2.0,4.0,76,0.00,,,0.00,meteohub,2013-06-05 17:32:00,
2013-06-05 10:37:00,59.7,52.2,30.06,ENE,68,2.0,4.0,76,0.00,,,0.00,meteohub,2013-06-05 17:37:00,
2013-06-05 10:42:00,60.4,52.9,30.06,NW,315,2.0,4.0,76,0.00,,,0.00,meteohub,2013-06-05 17:42:00,
2013-06-05 10:47:00,60.8,52.5,30.07,West,270,1.0,4.0,74,0.00,,,0.00,meteohub,2013-06-05 17:47:00,
2013-06-05 10:52:00,61.2,52.5,30.07,SSE,158,2.0,4.0,73,0.00,,,0.00,meteohub,2013-06-05 17:52:00,
2013-06-05 10:57:00,61.3,52.7,30.07,East,90,2.0,4.0,73,0.00,,,0.00,meteohub,2013-06-05 17:57:00,
2013-06-05 11:02:00,61.5,52.7,30.07,SSW,203,4.0,4.0,73,0.00,,,0.00,meteohub,2013-06-05 18:02:00,
2013-06-05 11:07:00,62.1,52.9,30.07,SSW,203,4.0,5.0,72,0.00,,,0.00,meteohub,2013-06-05 18:07:00,
2013-06-05 11:12:00,62.4,52.9,30.07,NW,315,4.0,5.0,71,0.00,,,0.00,meteohub,2013-06-05 18:12:00,
2013-06-05 11:17:00,62.2,52.3,30.07,West,270,4.0,6.0,70,0.00,,,0.00,meteohub,2013-06-05 18:17:00,
2013-06-05 11:22:00,62.6,52.7,30.07,East,90,2.0,6.0,70,0.00,,,0.00,meteohub,2013-06-05 18:22:00,
2013-06-05 11:27:00,63.0,53.1,30.08,NW,315,6.0,6.0,70,0.00,,,0.00,meteohub,2013-06-05 18:27:00,
2013-06-05 11:32:00,62.8,52.5,30.08,West,270,3.0,6.0,69,0.00,,,0.00,meteohub,2013-06-05 18:32:00,
2013-06-05 11:37:00,63.5,53.1,30.08,NW,315,3.0,6.0,69,0.00,,,0.00,meteohub,2013-06-05 18:37:00,
2013-06-05 11:42:00,63.9,53.1,30.08,ENE,68,10.0,10.0,68,0.00,,,0.00,meteohub,2013-06-05 18:42:00,
2013-06-05 11:47:00,63.7,52.9,30.08,North,0,2.0,10.0,68,0.00,,,0.00,meteohub,2013-06-05 18:47:00,
2013-06-05 11:52:00,64.0,53.2,30.08,SW,225,8.0,10.0,68,0.00,,,0.00,meteohub,2013-06-05 18:52:00,
2013-06-05 11:57:00,64.2,53.1,30.08,ESE,113,8.0,10.0,67,0.00,,,0.00,meteohub,2013-06-05 18:57:00,
2013-06-05 12:02:00,64.2,53.1,30.08,ENE,68,4.0,8.0,67,0.00,,,0.00,meteohub,2013-06-05 19:02:00,
2013-06-05 12:07:00,64.2,53.1,30.08,North,0,2.0,8.0,67,0.00,,,0.00,meteohub,2013-06-05 19:07:00,
2013-06-05 12:12:00,64.6,52.9,30.08,WNW,293,2.0,8.0,66,0.00,,,0.00,meteohub,2013-06-05 19:12:00,
2013-06-05 12:17:00,64.9,53.2,30.08,ESE,113,2.0,5.0,66,0.00,,,0.00,meteohub,2013-06-05 19:17:00,
2013-06-05 12:22:00,64.9,52.9,30.08,SE,135,3.0,5.0,65,0.00,,,0.00,meteohub,2013-06-05 19:22:00,
2013-06-05 12:27:00,64.9,52.9,30.08,ENE,68,9.0,9.0,65,0.00,,,0.00,meteohub,2013-06-05 19:27:00,
2013-06-05 12:32:00,65.1,53.1,30.08,South,180,4.0,9.0,65,0.00,,,0.00,meteohub,2013-06-05 19:32:00,
2013-06-05 12:37:00,65.1,52.7,30.08,WSW,248,4.0,9.0,64,0.00,,,0.00,meteohub,2013-06-05 19:37:00,
2013-06-05 12:42:00,65.3,52.9,30.08,West,270,6.0,9.0,64,0.00,,,0.00,meteohub,2013-06-05 19:42:00,
2013-06-05 12:47:00,65.3,52.9,30.08,NNW,338,2.0,6.0,64,0.00,,,0.00,meteohub,2013-06-05 19:47:00,
2013-06-05 12:52:00,65.5,53.1,30.08,ENE,68,2.0,6.0,64,0.00,,,0.00,meteohub,2013-06-05 19:52:00,
2013-06-05 12:57:00,65.8,53.2,30.08,NNW,338,4.0,6.0,64,0.00,,,0.00,meteohub,2013-06-05 19:57:00,
2013-06-05 13:02:00,66.2,53.2,30.08,ESE,113,5.0,6.0,63,0.00,,,0.00,meteohub,2013-06-05 20:02:00,
2013-06-05 13:07:00,66.4,53.4,30.08,South,180,3.0,6.0,63,0.00,,,0.00,meteohub,2013-06-05 20:07:00,
2013-06-05 13:12:00,67.1,53.6,30.08,ENE,68,4.0,6.0,62,0.00,,,0.00,meteohub,2013-06-05 20:12:00,
2013-06-05 13:17:00,67.6,54.1,30.08,NNE,23,5.0,6.0,62,0.00,,,0.00,meteohub,2013-06-05 20:17:00,
2013-06-05 13:22:00,67.8,54.3,30.08,East,90,4.0,6.0,62,0.00,,,0.00,meteohub,2013-06-05 20:22:00,
2013-06-05 13:27:00,67.8,54.3,30.08,East,90,4.0,6.0,62,0.00,,,0.00,meteohub,2013-06-05 20:27:00,
2013-06-05 13:32:00,68.4,53.4,30.08,ENE,68,10.0,10.0,59,0.00,,,0.00,meteohub,2013-06-05 20:32:00,
2013-06-05 13:37:00,68.4,53.4,30.08,NW,315,5.0,10.0,59,0.00,,,0.00,meteohub,2013-06-05 20:37:00,
2013-06-05 13:42:00,68.7,53.8,30.08,SE,135,2.0,10.0,59,0.00,,,0.00,meteohub,2013-06-05 20:42:00,
2013-06-05 13:47:00,68.2,52.9,30.08,West,270,9.0,10.0,58,0.00,,,0.00,meteohub,2013-06-05 20:47:00,
2013-06-05 13:52:00,68.4,53.1,30.08,East,90,8.0,9.0,58,0.00,,,0.00,meteohub,2013-06-05 20:52:00,
2013-06-05 13:57:00,68.5,53.2,30.08,ENE,68,7.0,9.0,58,0.00,,,0.00,meteohub,2013-06-05 20:57:00,
2013-06-05 14:02:00,68.7,53.4,30.08,ESE,113,7.0,9.0,58,0.00,,,0.00,meteohub,2013-06-05 21:02:00,
2013-06-05 14:07:00,68.7,52.9,30.07,ESE,113,5.0,8.0,57,0.00,,,0.00,meteohub,2013-06-05 21:07:00,
2013-06-05 14:12:00,68.7,52.9,30.07,South,180,3.0,7.0,57,0.00,,,0.00,meteohub,2013-06-05 21:12:00,
2013-06-05 14:17:00,68.9,53.1,30.07,NW,315,5.0,7.0,57,0.00,,,0.00,meteohub,2013-06-05 21:17:00,
2013-06-05 14:22:00,69.3,53.4,30.07,NNE,23,4.0,6.0,57,0.00,,,0.00,meteohub,2013-06-05 21:22:00,
2013-06-05 14:27:00,70.0,54.0,30.07,SW,225,3.0,5.0,57,0.00,,,0.00,meteohub,2013-06-05 21:27:00,
2013-06-05 14:32:00,70.2,54.1,30.07,NW,315,2.0,7.0,57,0.00,,,0.00,meteohub,2013-06-05 21:32:00,
2013-06-05 14:37:00,70.2,53.8,30.07,SE,135,5.0,7.0,56,0.00,,,0.00,meteohub,2013-06-05 21:37:00,
2013-06-05 14:42:00,70.0,53.6,30.07,North,0,8.0,8.0,56,0.00,,,0.00,meteohub,2013-06-05 21:42:00,
2013-06-05 14:47:00,69.6,53.2,30.08,NNW,338,6.0,8.0,56,0.00,,,0.00,meteohub,2013-06-05 21:47:00,
2013-06-05 14:52:00,69.8,53.4,30.08,WNW,293,6.0,8.0,56,0.00,,,0.00,meteohub,2013-06-05 21:52:00,
2013-06-05 14:57:00,69.4,53.1,30.08,NNW,338,11.0,11.0,56,0.00,,,0.00,meteohub,2013-06-05 21:57:00,
2013-06-05 15:03:00,68.5,52.2,30.08,SE,135,5.0,9.0,56,0.00,,,0.00,meteohub,2013-06-05 22:03:00,
2013-06-05 15:07:00,67.8,51.6,30.08,WSW,248,3.0,13.0,56,0.00,,,0.00,meteohub,2013-06-05 22:07:00,
2013-06-05 15:12:00,67.5,51.3,30.08,SE,135,5.0,13.0,56,0.00,,,0.00,meteohub,2013-06-05 22:12:00,
2013-06-05 15:18:00,66.9,51.3,30.08,South,180,1.0,7.0,57,0.00,,,0.00,meteohub,2013-06-05 22:18:00,
2013-06-05 15:23:00,66.2,50.5,30.08,ENE,68,11.0,11.0,57,0.00,,,0.00,meteohub,2013-06-05 22:23:00,
2013-06-05 15:28:00,65.8,50.7,30.08,SE,135,1.0,11.0,58,0.00,,,0.00,meteohub,2013-06-05 22:28:00,
2013-06-05 15:33:00,65.7,50.5,30.08,ENE,68,7.0,11.0,58,0.00,,,0.00,meteohub,2013-06-05 22:33:00,
2013-06-05 15:38:00,64.6,49.5,30.08,ESE,113,10.0,11.0,58,0.00,,,0.00,meteohub,2013-06-05 22:38:00,
2013-06-05 15:43:00,64.8,50.2,30.08,NNW,338,4.0,10.0,59,0.00,,,0.00,meteohub,2013-06-05 22:43:00,
2013-06-05 15:48:00,64.2,49.6,30.09,NW,315,3.0,10.0,59,0.00,,,0.00,meteohub,2013-06-05 22:48:00,
2013-06-05 15:53:00,63.5,48.9,30.09,SE,135,3.0,10.0,59,0.00,,,0.00,meteohub,2013-06-05 22:53:00,
2013-06-05 15:58:00,63.3,49.3,30.09,WSW,248,4.0,7.0,60,0.00,,,0.00,meteohub,2013-06-05 22:58:00,
2013-06-05 16:03:00,63.3,49.3,30.09,SW,225,2.0,7.0,60,0.00,,,0.00,meteohub,2013-06-05 23:03:00,
2013-06-05 16:08:00,63.5,49.8,30.08,SE,135,4.0,6.0,61,0.00,,,0.00,meteohub,2013-06-05 23:08:00,
2013-06-05 16:13:00,63.5,49.3,30.08,ESE,113,6.0,6.0,60,0.00,,,0.00,meteohub,2013-06-05 23:13:00,
2013-06-05 16:18:00,63.1,49.5,30.08,SSE,158,2.0,4.0,61,0.00,,,0.00,meteohub,2013-06-05 23:18:00,
2013-06-05 16:23:00,62.8,49.1,30.08,ESE,113,4.0,6.0,61,0.00,,,0.00,meteohub,2013-06-05 23:23:00,
2013-06-05 16:28:00,62.6,48.9,30.07,ESE,113,2.0,6.0,61,0.00,,,0.00,meteohub,2013-06-05 23:28:00,
2013-06-05 16:33:00,62.6,49.5,30.07,SSE,158,5.0,5.0,62,0.00,,,0.00,meteohub,2013-06-05 23:33:00,
2013-06-05 16:38:00,62.2,49.1,30.07,ESE,113,2.0,5.0,62,0.00,,,0.00,meteohub,2013-06-05 23:38:00,
2013-06-05 16:43:00,61.5,48.4,30.07,SE,135,6.0,7.0,62,0.00,,,0.00,meteohub,2013-06-05 23:43:00,
2013-06-05 16:48:00,61.3,48.6,30.07,SE,135,2.0,7.0,63,0.00,,,0.00,meteohub,2013-06-05 23:48:00,
2013-06-05 16:53:00,61.3,48.6,30.07,SSE,158,4.0,7.0,63,0.00,,,0.00,meteohub,2013-06-05 23:53:00,
2013-06-05 16:58:00,61.3,48.6,30.07,SSE,158,3.0,6.0,63,0.00,,,0.00,meteohub,2013-06-05 23:58:00,
2013-06-05 17:03:00,61.3,49.1,30.07,ESE,113,4.0,4.0,64,0.00,,,0.00,meteohub,2013-06-06 00:03:00,
2013-06-05 17:08:00,61.2,48.9,30.06,NE,45,5.0,5.0,64,0.00,,,0.00,meteohub,2013-06-06 00:08:00,
2013-06-05 17:13:00,60.8,48.6,30.06,ESE,113,0.0,4.0,64,0.00,,,0.00,meteohub,2013-06-06 00:13:00,
2013-06-05 17:18:00,60.6,48.7,30.06,ENE,68,3.0,6.0,65,0.00,,,0.00,meteohub,2013-06-06 00:18:00,
2013-06-05 17:23:00,60.8,48.6,30.06,WSW,248,2.0,6.0,64,0.00,,,0.00,meteohub,2013-06-06 00:23:00,
2013-06-05 17:28:00,60.8,48.9,30.07,SW,225,4.0,4.0,65,0.00,,,0.00,meteohub,2013-06-06 00:28:00,
2013-06-05 17:33:00,60.4,48.6,30.07,ENE,68,4.0,4.0,65,0.00,,,0.00,meteohub,2013-06-06 00:33:00,
2013-06-05 17:38:00,60.3,48.9,30.07,SW,225,5.0,5.0,66,0.00,,,0.00,meteohub,2013-06-06 00:38:00,
2013-06-05 17:43:00,60.1,48.7,30.07,NNE,23,5.0,5.0,66,0.00,,,0.00,meteohub,2013-06-06 00:43:00,
2013-06-05 17:48:00,59.9,48.6,30.06,West,270,0.0,5.0,66,0.00,,,0.00,meteohub,2013-06-06 00:48:00,
2013-06-05 17:53:00,59.9,48.6,30.06,SE,135,2.0,5.0,66,0.00,,,0.00,meteohub,2013-06-06 00:53:00,
2013-06-05 17:58:00,59.9,48.9,30.06,SSE,158,3.0,5.0,67,0.00,,,0.00,meteohub,2013-06-06 00:58:00,
2013-06-05 18:03:00,59.7,48.7,30.06,East,90,5.0,5.0,67,0.00,,,0.00,meteohub,2013-06-06 01:03:00,
2013-06-05 18:08:00,59.5,48.6,30.06,ESE,113,2.0,8.0,67,0.00,,,0.00,meteohub,2013-06-06 01:08:00,
2013-06-05 18:13:00,59.5,48.6,30.06,ENE,68,0.0,8.0,67,0.00,,,0.00,meteohub,2013-06-06 01:13:00,
2013-06-05 18:18:00,59.4,48.4,30.06,NE,45,4.0,5.0,67,0.00,,,0.00,meteohub,2013-06-06 01:18:00,
2013-06-05 18:23:00,58.8,48.2,30.06,East,90,4.0,4.0,68,0.00,,,0.00,meteohub,2013-06-06 01:23:00,
2013-06-05 18:28:00,58.6,48.2,30.06,ESE,113,2.0,4.0,68,0.00,,,0.00,meteohub,2013-06-06 01:28:00,
2013-06-05 18:33:00,58.3,47.8,30.06,NNE,23,0.0,5.0,68,0.00,,,0.00,meteohub,2013-06-06 01:33:00,
2013-06-05 18:38:00,58.3,47.8,30.06,SSE,158,2.0,5.0,68,0.00,,,0.00,meteohub,2013-06-06 01:38:00,
2013-06-05 18:43:00,58.3,48.2,30.06,SSE,158,2.0,5.0,69,0.00,,,0.00,meteohub,2013-06-06 01:43:00,
2013-06-05 18:48:00,58.5,48.4,30.05,SE,135,4.0,5.0,69,0.00,,,0.00,meteohub,2013-06-06 01:48:00,
2013-06-05 18:53:00,58.5,48.4,30.05,ESE,113,1.0,4.0,69,0.00,,,0.00,meteohub,2013-06-06 01:53:00,
2013-06-05 18:58:00,58.3,48.2,30.05,South,180,2.0,4.0,69,0.00,,,0.00,meteohub,2013-06-06 01:58:00,
2013-06-05 19:03:00,58.3,48.2,30.05,East,90,0.0,4.0,69,0.00,,,0.00,meteohub,2013-06-06 02:03:00,
2013-06-05 19:08:00,58.1,48.0,30.05,ESE,113,2.0,2.0,69,0.00,,,0.00,meteohub,2013-06-06 02:08:00,
2013-06-05 19:13:00,57.9,47.8,30.05,WSW,248,2.0,2.0,69,0.00,,,0.00,meteohub,2013-06-06 02:13:00,
2013-06-05 19:18:00,57.9,47.8,30.05,South,180,2.0,2.0,69,0.00,,,0.00,meteohub,2013-06-06 02:18:00,
2013-06-05 19:23:00,57.7,48.0,30.05,NE,45,2.0,2.0,70,0.00,,,0.00,meteohub,2013-06-06 02:23:00,
2013-06-05 19:28:00,57.6,47.8,30.05,SW,225,0.0,4.0,70,0.00,,,0.00,meteohub,2013-06-06 02:28:00,
2013-06-05 19:33:00,57.2,47.5,30.05,West,270,2.0,5.0,70,0.00,,,0.00,meteohub,2013-06-06 02:33:00,
2013-06-05 19:38:00,57.0,47.3,30.05,South,180,3.0,5.0,70,0.00,,,0.00,meteohub,2013-06-06 02:38:00,
2013-06-05 19:43:00,56.8,47.1,30.05,NE,45,0.0,5.0,70,0.00,,,0.00,meteohub,2013-06-06 02:43:00,
2013-06-05 19:48:00,56.8,47.5,30.05,ESE,113,2.0,3.0,71,0.00,,,0.00,meteohub,2013-06-06 02:48:00,
2013-06-05 19:53:00,56.7,47.3,30.05,SE,135,0.0,3.0,71,0.00,,,0.00,meteohub,2013-06-06 02:53:00,
2013-06-05 19:58:00,56.5,47.1,30.05,ESE,113,2.0,2.0,71,0.00,,,0.00,meteohub,2013-06-06 02:58:00,
2013-06-05 20:03:00,56.3,46.9,30.05,South,180,2.0,3.0,71,0.00,,,0.00,meteohub,2013-06-06 03:03:00,
2013-06-05 20:08:00,56.3,47.5,30.06,ESE,113,2.0,3.0,72,0.00,,,0.00,meteohub,2013-06-06 03:08:00,
2013-06-05 20:13:00,56.1,47.3,30.06,SE,135,0.0,3.0,72,0.00,,,0.00,meteohub,2013-06-06 03:13:00,
2013-06-05 20:18:00,56.1,47.3,30.06,West,270,0.0,3.0,72,0.00,,,0.00,meteohub,2013-06-06 03:18:00,
2013-06-05 20:23:00,55.9,47.1,30.06,SSW,203,3.0,3.0,72,0.00,,,0.00,meteohub,2013-06-06 03:23:00,
2013-06-05 20:28:00,55.9,47.1,30.06,SSE,158,0.0,3.0,72,0.00,,,0.00,meteohub,2013-06-06 03:28:00,
2013-06-05 20:33:00,55.8,46.9,30.06,East,90,2.0,3.0,72,0.00,,,0.00,meteohub,2013-06-06 03:33:00,
2013-06-05 20:38:00,55.6,47.1,30.06,ENE,68,2.0,3.0,73,0.00,,,0.00,meteohub,2013-06-06 03:38:00,
2013-06-05 20:43:00,55.6,47.1,30.06,SE,135,0.0,2.0,73,0.00,,,0.00,meteohub,2013-06-06 03:43:00,
2013-06-05 20:48:00,55.6,47.1,30.05,SSE,158,2.0,2.0,73,0.00,,,0.00,meteohub,2013-06-06 03:48:00,
2013-06-05 20:53:00,55.4,46.9,30.05,SE,135,2.0,2.0,73,0.00,,,0.00,meteohub,2013-06-06 03:53:00,
2013-06-05 20:58:00,55.4,46.9,30.05,East,90,0.0,2.0,73,0.00,,,0.00,meteohub,2013-06-06 03:58:00,
2013-06-05 21:01:00,55.4,46.9,30.05,WNW,293,0.0,2.0,73,0.00,,,0.00,meteohub,2013-06-06 04:01:00,
2013-06-05 21:02:00,55.4,47.3,30.05,WNW,293,0.0,2.0,74,0.00,,,0.00,meteohub,2013-06-06 04:02:00,
2013-06-05 21:07:00,55.4,47.3,30.05,West,270,0.0,2.0,74,0.00,,,0.00,meteohub,2013-06-06 04:07:00,
2013-06-05 21:12:00,55.4,47.3,30.05,SE,135,0.0,0.0,74,0.00,,,0.00,meteohub,2013-06-06 04:12:00,
2013-06-05 21:17:00,55.4,47.3,30.05,SW,225,1.0,2.0,74,0.00,,,0.00,meteohub,2013-06-06 04:17:00,
2013-06-05 21:22:00,55.2,47.5,30.05,WSW,248,6.0,6.0,75,0.00,,,0.00,meteohub,2013-06-06 04:22:00,
2013-06-05 21:27:00,55.2,47.5,30.05,NE,45,0.0,2.0,75,0.00,,,0.00,meteohub,2013-06-06 04:27:00,
2013-06-05 21:32:00,55.2,47.5,30.05,SE,135,0.0,6.0,75,0.00,,,0.00,meteohub,2013-06-06 04:32:00,
2013-06-05 21:37:00,55.2,47.5,30.05,SSE,158,0.0,6.0,75,0.00,,,0.00,meteohub,2013-06-06 04:37:00,
2013-06-05 21:42:00,55.2,47.5,30.05,ESE,113,2.0,0.0,75,0.00,,,0.00,meteohub,2013-06-06 04:42:00,
2013-06-05 21:47:00,55.2,47.5,30.05,WSW,248,0.0,3.0,75,0.00,,,0.00,meteohub,2013-06-06 04:47:00,
2013-06-05 21:52:00,55.0,47.3,30.05,NNE,23,2.0,3.0,75,0.00,,,0.00,meteohub,2013-06-06 04:52:00,
2013-06-05 21:57:00,55.0,47.7,30.05,ENE,68,1.0,2.0,76,0.00,,,0.00,meteohub,2013-06-06 04:57:00,
2013-06-05 22:02:00,54.9,47.5,30.05,NNE,23,0.0,2.0,76,0.00,,,0.00,meteohub,2013-06-06 05:02:00,
2013-06-05 22:07:00,54.9,47.5,30.05,ESE,113,0.0,2.0,76,0.00,,,0.00,meteohub,2013-06-06 05:07:00,
2013-06-05 22:12:00,54.7,47.3,30.05,NE,45,2.0,2.0,76,0.00,,,0.00,meteohub,2013-06-06 05:12:00,
2013-06-05 22:17:00,54.5,47.1,30.05,ESE,113,0.0,2.0,76,0.00,,,0.00,meteohub,2013-06-06 05:17:00,
2013-06-05 22:22:00,54.5,47.1,30.05,SE,135,1.0,2.0,76,0.00,,,0.00,meteohub,2013-06-06 05:22:00,
2013-06-05 22:27:00,54.5,47.1,30.05,WSW,248,2.0,2.0,76,0.00,,,0.00,meteohub,2013-06-06 05:27:00,
2013-06-05 22:32:00,54.7,47.3,30.05,SSW,203,2.0,2.0,76,0.00,,,0.00,meteohub,2013-06-06 05:32:00,
2013-06-05 22:37:00,54.7,47.3,30.05,ESE,113,3.0,3.0,76,0.00,,,0.00,meteohub,2013-06-06 05:37:00,
2013-06-05 22:42:00,54.5,47.5,30.05,NE,45,1.0,3.0,77,0.00,,,0.00,meteohub,2013-06-06 05:42:00,
2013-06-05 22:47:00,54.5,47.5,30.05,ESE,113,0.0,3.0,77,0.00,,,0.00,meteohub,2013-06-06 05:47:00,
2013-06-05 22:52:00,54.3,47.3,30.05,SSE,158,0.0,3.0,77,0.00,,,0.00,meteohub,2013-06-06 05:52:00,
2013-06-05 22:57:00,54.3,47.3,30.05,SW,225,0.0,2.0,77,0.00,,,0.00,meteohub,2013-06-06 05:57:00,
2013-06-05 23:02:00,54.5,47.5,30.05,South,180,0.0,2.0,77,0.00,,,0.00,meteohub,2013-06-06 06:02:00,
2013-06-05 23:07:00,54.3,47.3,30.04,ENE,68,0.0,2.0,77,0.00,,,0.00,meteohub,2013-06-06 06:07:00,
2013-06-05 23:12:00,54.3,47.3,30.04,SE,135,1.0,0.0,77,0.00,,,0.00,meteohub,2013-06-06 06:12:00,
2013-06-05 23:17:00,54.1,47.1,30.04,SSW,203,0.0,3.0,77,0.00,,,0.00,meteohub,2013-06-06 06:17:00,
2013-06-05 23:22:00,54.0,46.9,30.04,East,90,0.0,3.0,77,0.00,,,0.00,meteohub,2013-06-06 06:22:00,
2013-06-05 23:27:00,54.0,47.3,30.04,WSW,248,0.0,1.0,78,0.00,,,0.00,meteohub,2013-06-06 06:27:00,
2013-06-05 23:32:00,54.0,47.3,30.04,ENE,68,0.0,0.0,78,0.00,,,0.00,meteohub,2013-06-06 06:32:00,
2013-06-05 23:38:00,54.0,47.3,30.04,South,180,0.0,2.0,78,0.00,,,0.00,meteohub,2013-06-06 06:38:00,
2013-06-05 23:43:00,54.0,47.3,30.04,South,180,0.0,2.0,78,0.00,,,0.00,meteohub,2013-06-06 06:43:00,
2013-06-05 23:48:00,54.0,47.3,30.04,SE,135,0.0,0.0,78,0.00,,,0.00,meteohub,2013-06-06 06:48:00,
2013-06-05 23:53:00,54.0,47.3,30.04,NE,45,2.0,0.0,78,0.00,,,0.00,meteohub,2013-06-06 06:53:00,
2013-06-05 23:58:00,54.0,47.3,30.04,SE,135,0.0,1.0,78,0.00,,,0.00,meteohub,2013-06-06 06:58:00,